createdAt,value
2022-11-30T00:01:18.345Z,11.00
2022-11-30T00:03:54.527Z,12.23
2022-11-30T00:06:27.511Z,10.63
2022-11-30T00:11:34.081Z,11.65
2022-11-30T00:14:08.409Z,9.57
2022-11-30T00:16:41.424Z,10.82
2022-11-30T00:21:47.716Z,9.63
2022-11-30T00:24:20.503Z,8.75
2022-11-30T00:26:53.480Z,9.15
2022-11-30T00:32:00.266Z,9.20
2022-11-30T00:34:33.225Z,9.95
2022-11-30T00:37:06.022Z,8.00
2022-11-30T00:39:39.048Z,10.70
2022-11-30T00:44:46.917Z,10.45
2022-11-30T00:47:20.202Z,10.05
2022-11-30T00:49:53.498Z,11.18
2022-11-30T00:52:26.427Z,8.32
2022-11-30T00:57:37.178Z,8.93
2022-11-30T01:00:13.087Z,9.75
2022-11-30T01:02:46.266Z,9.70
2022-11-30T01:05:19.237Z,9.82
2022-11-30T01:07:52.331Z,10.13
2022-11-30T01:10:25.128Z,10.00
2022-11-30T01:12:58.295Z,9.63
2022-11-30T01:15:36.656Z,9.45
2022-11-30T01:18:10.140Z,9.13
2022-11-30T01:20:43.892Z,8.82
2022-11-30T01:23:16.928Z,8.77
2022-11-30T01:28:27.633Z,8.00
2022-11-30T01:33:36.675Z,10.65
2022-11-30T01:36:13.466Z,9.35
2022-11-30T01:38:49.693Z,9.07
2022-11-30T01:41:24.664Z,8.82
2022-11-30T01:43:59.699Z,9.82
2022-11-30T01:46:39.592Z,10.00
2022-11-30T01:49:18.206Z,9.00
2022-11-30T01:51:54.904Z,7.28
2022-11-30T01:54:34.298Z,8.73
2022-11-30T01:57:12.420Z,11.25
2022-11-30T01:59:45.572Z,7.22
2022-11-30T02:02:26.250Z,8.10
2022-11-30T02:04:59.135Z,8.27
2022-11-30T02:07:32.069Z,7.15
2022-11-30T02:12:46.255Z,8.80
2022-11-30T02:15:23.926Z,8.35
2022-11-30T02:18:06.900Z,7.10
2022-11-30T02:21:02.210Z,7.80
2022-11-30T02:23:51.950Z,6.90
2022-11-30T02:26:40.736Z,6.93
2022-11-30T02:29:20.411Z,9.15
2022-11-30T02:32:02.717Z,7.35
2022-11-30T02:34:38.267Z,7.43
2022-11-30T02:37:15.069Z,7.85
2022-11-30T02:39:48.238Z,7.43
2022-11-30T02:42:21.317Z,7.00
2022-11-30T02:47:36.232Z,8.30
2022-11-30T02:50:16.026Z,7.10
2022-11-30T02:52:49.781Z,6.70
2022-11-30T02:55:23.035Z,6.85
2022-11-30T02:57:55.739Z,7.30
2022-11-30T03:00:30.396Z,5.65
2022-11-30T03:03:04.557Z,7.82
2022-11-30T03:05:38.203Z,7.00
2022-11-30T03:08:11.152Z,8.07
2022-11-30T03:13:16.808Z,6.78
2022-11-30T03:18:23.793Z,6.82
2022-11-30T03:20:56.623Z,6.03
2022-11-30T03:23:30.254Z,6.15
2022-11-30T03:26:03.993Z,6.60
2022-11-30T03:28:37.848Z,6.40
2022-11-30T03:31:13.754Z,5.60
2022-11-30T03:33:46.658Z,5.65
2022-11-30T03:36:19.545Z,7.18
2022-11-30T03:38:52.938Z,6.70
2022-11-30T03:41:25.681Z,6.97
2022-11-30T03:43:58.394Z,6.03
2022-11-30T03:46:34.213Z,6.85
2022-11-30T03:49:07.310Z,7.45
2022-11-30T03:54:13.063Z,6.88
2022-11-30T03:56:45.806Z,6.75
2022-11-30T03:59:18.581Z,6.75
2022-11-30T04:01:52.715Z,6.22
2022-11-30T04:04:25.611Z,5.20
2022-11-30T04:06:58.790Z,7.82
2022-11-30T04:12:05.403Z,5.25
2022-11-30T04:14:38.259Z,5.90
2022-11-30T04:19:44.979Z,5.65
2022-11-30T04:22:17.838Z,7.22
2022-11-30T04:24:50.772Z,7.18
2022-11-30T04:29:58.326Z,5.47
2022-11-30T04:32:32.625Z,5.75
2022-11-30T04:35:06.126Z,5.43
2022-11-30T04:37:39.125Z,5.90
2022-11-30T04:42:45.260Z,5.60
2022-11-30T04:45:18.142Z,5.75
2022-11-30T04:47:52.394Z,5.45
2022-11-30T04:50:25.764Z,6.30
2022-11-30T04:52:59.195Z,6.85
2022-11-30T04:55:32.584Z,5.57
2022-11-30T04:58:05.427Z,5.95
2022-11-30T05:00:41.924Z,6.75
2022-11-30T05:03:16.159Z,5.45
2022-11-30T05:05:49.662Z,5.60
2022-11-30T05:08:22.465Z,5.95
2022-11-30T05:10:55.851Z,6.15
2022-11-30T05:13:28.792Z,5.38
2022-11-30T05:18:36.897Z,7.22
2022-11-30T05:21:09.777Z,7.63
2022-11-30T05:23:42.708Z,7.47
2022-11-30T05:28:48.637Z,8.73
2022-11-30T05:31:21.440Z,5.47
2022-11-30T05:33:56.095Z,7.35
2022-11-30T05:36:29.502Z,6.97
2022-11-30T05:39:02.328Z,5.90
2022-11-30T05:41:35.105Z,7.00
2022-11-30T05:44:07.942Z,6.63
2022-11-30T05:46:42.420Z,6.35
2022-11-30T05:49:16.494Z,5.35
2022-11-30T05:51:49.856Z,5.25
2022-11-30T05:54:22.814Z,6.53
2022-11-30T05:59:28.502Z,7.07
2022-11-30T06:04:35.792Z,4.43
2022-11-30T06:07:12.609Z,6.40
2022-11-30T06:09:45.398Z,6.55
2022-11-30T06:12:18.346Z,5.28
2022-11-30T06:14:51.159Z,8.93
2022-11-30T06:17:23.921Z,6.57
2022-11-30T06:19:58.072Z,6.57
2022-11-30T06:22:31.561Z,5.43
2022-11-30T06:25:04.800Z,5.50
2022-11-30T06:27:37.735Z,5.65
2022-11-30T06:30:11.682Z,7.00
2022-11-30T06:32:46.372Z,5.70
2022-11-30T06:35:20.835Z,6.60
2022-11-30T06:37:54.765Z,5.63
2022-11-30T06:40:28.223Z,7.80
2022-11-30T06:43:01.360Z,6.00
2022-11-30T06:45:34.666Z,6.10
2022-11-30T06:48:07.671Z,6.93
2022-11-30T06:53:23.401Z,7.57
2022-11-30T06:55:56.309Z,8.48
2022-11-30T06:58:29.414Z,6.07
2022-11-30T07:01:02.234Z,9.13
2022-11-30T07:03:35.603Z,7.40
2022-11-30T07:08:45.540Z,6.65
2022-11-30T07:11:18.492Z,9.43
2022-11-30T07:13:51.457Z,8.57
2022-11-30T07:18:57.308Z,8.13
2022-11-30T07:21:31.548Z,6.90
2022-11-30T07:24:21.927Z,7.25
2022-11-30T07:26:54.777Z,7.65
2022-11-30T07:29:28.080Z,7.57
2022-11-30T07:32:01.119Z,9.13
2022-11-30T07:34:33.956Z,6.97
2022-11-30T07:37:08.245Z,7.22
2022-11-30T07:39:41.072Z,8.00
2022-11-30T07:42:14.741Z,7.60
2022-11-30T07:44:51.442Z,8.75
2022-11-30T07:47:26.715Z,8.75
2022-11-30T07:49:59.546Z,8.35
2022-11-30T07:52:33.912Z,7.97
2022-11-30T07:55:08.716Z,7.65
2022-11-30T07:57:41.441Z,6.80
2022-11-30T08:00:18.041Z,11.38
2022-11-30T08:02:51.287Z,7.57
2022-11-30T08:05:24.113Z,8.88
2022-11-30T08:07:58.318Z,8.57
2022-11-30T08:10:32.148Z,7.00
2022-11-30T08:13:05.008Z,8.43
2022-11-30T08:15:38.287Z,7.15
2022-11-30T08:18:11.309Z,8.18
2022-11-30T08:20:49.698Z,8.50
2022-11-30T08:23:24.161Z,7.63
2022-11-30T08:25:57.140Z,6.90
2022-11-30T08:31:03.991Z,7.55
2022-11-30T08:33:38.877Z,10.68
2022-11-30T08:36:14.160Z,8.00
2022-11-30T08:38:49.877Z,9.32
2022-11-30T08:41:23.446Z,9.88
2022-11-30T08:43:56.603Z,8.50
2022-11-30T08:49:24.512Z,9.70
2022-11-30T08:54:52.173Z,10.23
2022-11-30T08:57:27.893Z,10.88
2022-11-30T09:00:00.633Z,8.85
2022-11-30T09:02:33.377Z,8.30
2022-11-30T09:05:07.123Z,9.85
2022-11-30T09:07:39.890Z,9.35
2022-11-30T09:10:14.439Z,9.20
2022-11-30T09:12:47.089Z,11.25
2022-11-30T09:15:19.962Z,9.40
2022-11-30T09:17:52.809Z,10.68
2022-11-30T09:20:25.582Z,10.70
2022-11-30T09:23:00.572Z,10.73
2022-11-30T09:25:34.662Z,10.20
2022-11-30T09:28:12.179Z,10.50
2022-11-30T09:30:45.237Z,11.48
2022-11-30T09:33:18.156Z,12.90
2022-11-30T09:35:57.564Z,10.75
2022-11-30T09:38:30.587Z,11.27
2022-11-30T09:41:12.797Z,10.98
2022-11-30T09:43:52.665Z,10.83
2022-11-30T09:46:31.628Z,13.15
2022-11-30T09:49:06.861Z,11.82
2022-11-30T09:51:45.547Z,9.77
2022-11-30T09:54:22.375Z,11.48
2022-11-30T09:56:56.738Z,10.23
2022-11-30T09:59:32.782Z,11.85
2022-11-30T10:02:16.520Z,11.68
2022-11-30T10:04:49.736Z,10.15
2022-11-30T10:07:41.077Z,12.38
2022-11-30T10:10:34.011Z,8.73
2022-11-30T10:13:27.971Z,13.10
2022-11-30T10:16:10.917Z,9.43
2022-11-30T10:19:01.039Z,12.57
2022-11-30T10:21:46.632Z,14.52
2022-11-30T10:24:33.340Z,11.38
2022-11-30T10:27:16.726Z,13.27
2022-11-30T10:29:51.400Z,10.65
2022-11-30T10:32:33.595Z,9.80
2022-11-30T10:35:19.695Z,11.67
2022-11-30T10:37:54.761Z,10.80
2022-11-30T10:40:38.936Z,10.32
2022-11-30T10:43:22.780Z,12.85
2022-11-30T10:45:57.257Z,10.48
2022-11-30T10:48:38.482Z,11.38
2022-11-30T10:51:13.344Z,10.63
2022-11-30T10:53:46.900Z,13.60
2022-11-30T10:56:19.816Z,12.40
2022-11-30T10:58:57.916Z,13.77
2022-11-30T11:01:35.089Z,11.13
2022-11-30T11:04:17.225Z,12.27
2022-11-30T11:06:53.564Z,13.45
2022-11-30T11:09:37.942Z,12.77
2022-11-30T11:12:17.378Z,14.18
2022-11-30T11:14:50.467Z,14.20
2022-11-30T11:17:26.335Z,13.05
2022-11-30T11:19:59.882Z,13.55
2022-11-30T11:22:32.721Z,14.43
2022-11-30T11:25:17.394Z,24.10
2022-11-30T11:27:53.591Z,21.60
2022-11-30T11:30:34.469Z,23.27
2022-11-30T11:33:21.336Z,24.80
2022-11-30T11:35:55.960Z,25.27
2022-11-30T11:38:30.772Z,27.90
2022-11-30T11:41:06.443Z,32.08
2022-11-30T11:43:59.526Z,28.67
2022-11-30T11:46:34.113Z,26.92
2022-11-30T11:49:20.097Z,24.60
2022-11-30T11:52:02.032Z,22.13
2022-11-30T11:54:39.528Z,31.92
2022-11-30T11:57:15.439Z,36.80
2022-11-30T11:59:55.323Z,33.35
2022-11-30T12:02:35.913Z,31.85
2022-11-30T12:05:16.535Z,36.35
2022-11-30T12:08:02.335Z,35.75
2022-11-30T12:10:54.646Z,27.77
2022-11-30T12:13:32.498Z,24.00
2022-11-30T12:16:18.634Z,23.05
2022-11-30T12:18:59.546Z,22.50
2022-11-30T12:21:47.078Z,22.20
2022-11-30T12:24:36.419Z,23.63
2022-11-30T12:27:19.833Z,30.60
2022-11-30T12:30:06.201Z,35.78
2022-11-30T12:32:57.189Z,33.53
2022-11-30T12:35:38.095Z,31.33
2022-11-30T12:38:22.356Z,31.23
2022-11-30T12:41:05.679Z,35.40
2022-11-30T12:43:48.669Z,36.70
2022-11-30T12:46:27.211Z,29.67
2022-11-30T12:49:21.071Z,28.65
2022-11-30T12:52:04.351Z,28.98
2022-11-30T12:57:21.391Z,26.73
2022-11-30T13:00:04.640Z,30.48
2022-11-30T13:05:27.213Z,28.48
2022-11-30T13:08:06.751Z,26.48
2022-11-30T13:10:44.082Z,26.52
2022-11-30T13:13:22.160Z,29.65
2022-11-30T13:15:56.744Z,26.23
2022-11-30T13:18:30.557Z,29.02
2022-11-30T13:21:07.347Z,26.15
2022-11-30T13:23:45.010Z,22.27
2022-11-30T13:26:24.904Z,24.88
2022-11-30T13:29:18.617Z,30.33
2022-11-30T13:31:56.796Z,26.73
2022-11-30T13:34:31.085Z,27.30
2022-11-30T13:37:07.602Z,31.50
2022-11-30T13:39:48.937Z,38.75
2022-11-30T13:42:34.196Z,30.48
2022-11-30T13:45:30.332Z,33.05
2022-11-30T13:48:19.634Z,32.33
2022-11-30T13:50:52.793Z,27.17
2022-11-30T13:53:27.793Z,30.00
2022-11-30T13:56:28.932Z,25.17
2022-11-30T13:59:36.256Z,29.73
2022-11-30T14:02:58.560Z,26.35
2022-11-30T14:05:41.406Z,30.55
2022-11-30T14:08:32.344Z,25.95
2022-11-30T14:11:38.362Z,28.17
2022-11-30T14:14:45.772Z,23.98
2022-11-30T14:17:25.048Z,25.05
2022-11-30T14:20:01.745Z,25.30
2022-11-30T14:22:36.378Z,27.88
2022-11-30T14:25:14.196Z,29.65
2022-11-30T14:27:48.930Z,26.52
2022-11-30T14:30:24.559Z,26.67
2022-11-30T14:33:02.642Z,24.95
2022-11-30T14:35:40.144Z,31.67
2022-11-30T14:38:25.494Z,28.20
2022-11-30T14:40:59.462Z,26.65
2022-11-30T14:43:32.656Z,25.30
2022-11-30T14:46:11.634Z,24.98
2022-11-30T14:49:05.265Z,26.65
2022-11-30T14:51:40.825Z,28.98
2022-11-30T14:54:27.678Z,25.77
2022-11-30T14:57:03.736Z,28.08
2022-11-30T14:59:47.972Z,27.27
2022-11-30T15:02:29.709Z,29.65
2022-11-30T15:05:02.830Z,29.77
2022-11-30T15:07:37.593Z,28.98
2022-11-30T15:10:17.228Z,27.70
2022-11-30T15:12:50.296Z,32.35
2022-11-30T15:17:58.930Z,33.10
2022-11-30T15:20:38.850Z,34.50
2022-11-30T15:23:14.485Z,31.35
2022-11-30T15:25:51.837Z,33.22
2022-11-30T15:28:28.936Z,27.85
2022-11-30T15:31:06.584Z,30.95
2022-11-30T15:33:44.057Z,29.55
2022-11-30T15:36:32.048Z,29.70
2022-11-30T15:39:08.588Z,29.67
2022-11-30T15:41:42.962Z,26.88
2022-11-30T15:44:26.799Z,29.67
2022-11-30T15:47:09.495Z,32.00
2022-11-30T15:49:55.342Z,32.17
2022-11-30T15:52:30.071Z,29.90
2022-11-30T15:55:05.282Z,27.23
2022-11-30T15:58:01.504Z,29.90
2022-11-30T16:00:35.003Z,25.30
2022-11-30T16:03:12.578Z,27.17
2022-11-30T16:05:58.170Z,32.58
2022-11-30T16:08:34.944Z,31.13
2022-11-30T16:11:08.478Z,26.40
2022-11-30T16:13:42.833Z,29.92
2022-11-30T16:16:21.054Z,30.00
2022-11-30T16:18:53.825Z,27.40
2022-11-30T16:21:26.748Z,28.58
2022-11-30T16:23:59.627Z,25.85
2022-11-30T16:26:50.434Z,26.50
2022-11-30T16:29:25.487Z,26.52
2022-11-30T16:31:58.443Z,27.15
2022-11-30T16:37:05.119Z,29.35
2022-11-30T16:39:37.915Z,27.45
2022-11-30T16:42:13.222Z,24.73
2022-11-30T16:44:47.377Z,25.10
2022-11-30T16:47:20.141Z,27.77
2022-11-30T16:49:52.831Z,29.60
2022-11-30T16:52:25.558Z,30.10
2022-11-30T16:54:58.427Z,27.00
2022-11-30T16:57:31.307Z,26.95
2022-11-30T17:02:43.955Z,27.50
2022-11-30T17:05:20.408Z,27.02
2022-11-30T17:07:54.611Z,28.17
2022-11-30T17:10:28.104Z,32.55
2022-11-30T17:13:01.287Z,32.10
2022-11-30T17:15:35.463Z,31.25
2022-11-30T17:18:11.618Z,29.00
2022-11-30T17:20:44.867Z,28.83
2022-11-30T17:23:17.792Z,32.80
2022-11-30T17:28:23.637Z,37.22
2022-11-30T17:30:57.801Z,30.67
2022-11-30T17:33:32.787Z,27.63
2022-11-30T17:36:07.959Z,36.95
2022-11-30T17:38:44.234Z,35.88
2022-11-30T17:41:20.012Z,31.88
2022-11-30T17:43:53.271Z,33.95
2022-11-30T17:46:27.746Z,35.97
2022-11-30T17:49:00.764Z,30.83
2022-11-30T17:54:06.876Z,33.88
2022-11-30T17:56:40.933Z,33.33
2022-11-30T17:59:13.689Z,42.10
2022-11-30T18:01:47.931Z,43.80
2022-11-30T18:04:20.903Z,54.20
2022-11-30T18:09:28.810Z,49.75
2022-11-30T18:12:03.797Z,46.42
2022-11-30T18:14:37.035Z,50.97
2022-11-30T18:19:44.193Z,48.03
2022-11-30T18:22:17.120Z,49.95
2022-11-30T18:24:50.431Z,49.65
2022-11-30T18:27:24.041Z,48.13
2022-11-30T18:29:57.300Z,47.22
2022-11-30T18:32:31.966Z,44.13
2022-11-30T18:35:05.295Z,40.92
2022-11-30T18:37:38.233Z,51.55
2022-11-30T18:40:13.250Z,43.20
2022-11-30T18:42:48.623Z,48.88
2022-11-30T18:45:21.612Z,41.65
2022-11-30T18:50:31.089Z,45.33
2022-11-30T18:53:06.888Z,42.53
2022-11-30T18:55:39.965Z,39.65
2022-11-30T18:58:13.022Z,40.25
2022-11-30T19:03:24.449Z,35.42
2022-11-30T19:05:57.539Z,38.03
2022-11-30T19:08:30.817Z,39.33
2022-11-30T19:11:05.844Z,38.75
2022-11-30T19:13:38.945Z,41.70
2022-11-30T19:18:47.406Z,41.15
2022-11-30T19:21:25.292Z,42.75
2022-11-30T19:24:01.529Z,38.10
2022-11-30T19:26:40.132Z,37.63
2022-11-30T19:29:13.751Z,39.38
2022-11-30T19:31:47.047Z,39.80
2022-11-30T19:34:21.431Z,40.50
2022-11-30T19:36:54.506Z,39.85
2022-11-30T19:39:28.604Z,37.65
2022-11-30T19:42:01.866Z,38.35
2022-11-30T19:44:39.095Z,39.55
2022-11-30T19:47:12.185Z,37.15
2022-11-30T19:49:53.109Z,38.50
2022-11-30T19:52:26.592Z,38.00
2022-11-30T19:54:59.911Z,36.47
2022-11-30T19:57:33.035Z,34.47
2022-11-30T20:00:07.563Z,39.28
2022-11-30T20:02:48.219Z,36.92
2022-11-30T20:05:22.616Z,34.95
2022-11-30T20:07:56.270Z,34.42
2022-11-30T20:10:32.113Z,37.85
2022-11-30T20:13:05.370Z,33.15
2022-11-30T20:15:39.640Z,35.63
2022-11-30T20:18:14.603Z,36.47
2022-11-30T20:20:55.108Z,36.92
2022-11-30T20:23:30.315Z,35.08
2022-11-30T20:26:17.061Z,34.50
2022-11-30T20:28:51.980Z,35.05
2022-11-30T20:31:29.158Z,39.10
2022-11-30T20:34:02.586Z,35.50
2022-11-30T20:36:37.585Z,37.40
2022-11-30T20:39:14.487Z,36.40
2022-11-30T20:41:47.814Z,33.20
2022-11-30T20:44:21.346Z,38.13
2022-11-30T20:46:56.767Z,40.13
2022-11-30T20:49:32.142Z,36.85
2022-11-30T20:52:06.869Z,34.85
2022-11-30T20:54:39.671Z,36.28
2022-11-30T20:57:13.903Z,36.28
2022-11-30T20:59:47.025Z,37.20
2022-11-30T21:02:19.907Z,40.55
2022-11-30T21:04:54.212Z,33.75
2022-11-30T21:07:28.879Z,37.20
2022-11-30T21:10:01.712Z,35.13
2022-11-30T21:12:34.492Z,36.75
2022-11-30T21:15:09.780Z,32.95
2022-11-30T21:17:42.516Z,33.13
2022-11-30T21:20:15.295Z,34.00
2022-11-30T21:22:49.503Z,33.00
2022-11-30T21:25:22.514Z,32.38
2022-11-30T21:30:27.804Z,39.40
2022-11-30T21:33:03.342Z,36.20
2022-11-30T21:35:36.318Z,35.58
2022-11-30T21:40:43.911Z,34.13
2022-11-30T21:43:16.693Z,37.17
2022-11-30T21:45:57.849Z,39.42
2022-11-30T21:48:32.542Z,32.85
2022-11-30T21:51:07.646Z,34.90
2022-11-30T21:53:44.038Z,35.25
2022-11-30T21:56:19.562Z,33.30
2022-11-30T21:58:53.422Z,34.25
2022-11-30T22:01:29.110Z,35.92
2022-11-30T22:04:02.976Z,33.72
2022-11-30T22:06:37.652Z,34.58
2022-11-30T22:09:14.950Z,34.80
2022-11-30T22:11:50.090Z,29.80
2022-11-30T22:14:23.449Z,29.33
2022-11-30T22:16:57.118Z,30.05
2022-11-30T22:19:30.040Z,30.27
2022-11-30T22:22:02.851Z,29.40
2022-11-30T22:27:09.871Z,34.35
2022-11-30T22:29:42.645Z,29.63
2022-11-30T22:32:15.437Z,30.45
2022-11-30T22:34:48.201Z,28.77
2022-11-30T22:39:55.107Z,29.10
2022-11-30T22:42:27.975Z,25.27
2022-11-30T22:45:00.705Z,30.17
2022-11-30T22:47:33.865Z,26.52
2022-11-30T22:50:07.900Z,28.40
2022-11-30T22:53:02.051Z,30.17
2022-11-30T22:55:48.241Z,31.70
2022-11-30T22:58:21.615Z,28.88
2022-11-30T23:00:54.798Z,29.20
2022-11-30T23:03:31.399Z,31.88
2022-11-30T23:06:04.625Z,28.55
2022-11-30T23:08:41.583Z,29.45
2022-11-30T23:11:19.178Z,27.30
2022-11-30T23:13:52.916Z,26.17
2022-11-30T23:16:26.598Z,31.48
2022-11-30T23:19:01.572Z,27.48
2022-11-30T23:21:41.078Z,25.33
2022-11-30T23:24:17.073Z,28.08
2022-11-30T23:26:51.496Z,28.70
2022-11-30T23:29:24.768Z,28.33
2022-11-30T23:31:57.873Z,24.73
2022-11-30T23:34:30.854Z,26.15
2022-11-30T23:37:03.643Z,28.55
2022-11-30T23:39:36.535Z,28.27
2022-11-30T23:44:43.240Z,25.88
2022-11-30T23:47:18.441Z,25.40
2022-11-30T23:49:51.922Z,26.50
2022-11-30T23:52:25.031Z,29.02
2022-11-30T23:55:00.368Z,25.35
2022-11-30T23:57:35.156Z,25.65
